createdAt,value
2023-02-01T00:01:21.807Z,4.80
2023-02-01T00:03:49.715Z,3.30
2023-02-01T00:06:17.765Z,4.70
2023-02-01T00:08:45.695Z,3.40
2023-02-01T00:11:14.110Z,3.00
2023-02-01T00:13:42.787Z,3.20
2023-02-01T00:16:20.494Z,2.80
2023-02-01T00:18:50.692Z,3.20
2023-02-01T00:21:22.587Z,3.30
2023-02-01T00:23:50.740Z,3.70
2023-02-01T00:26:24.294Z,3.90
2023-02-01T00:28:52.377Z,4.00
2023-02-01T00:31:20.346Z,4.80
2023-02-01T00:33:49.412Z,4.60
2023-02-01T00:36:18.133Z,4.50
2023-02-01T00:38:46.172Z,4.70
2023-02-01T00:41:16.533Z,4.70
2023-02-01T00:43:45.700Z,5.10
2023-02-01T00:46:15.202Z,4.90
2023-02-01T00:48:43.624Z,4.70
2023-02-01T00:51:14.498Z,3.60
2023-02-01T00:53:42.832Z,2.90
2023-02-01T00:56:11.565Z,2.70
2023-02-01T00:58:40.047Z,2.70
2023-02-01T01:01:24.394Z,3.30
2023-02-01T01:03:58.606Z,2.80
2023-02-01T01:06:29.412Z,2.90
2023-02-01T01:08:59.125Z,2.70
2023-02-01T01:11:33.333Z,2.60
2023-02-01T01:14:01.819Z,2.60
2023-02-01T01:16:31.309Z,2.30
2023-02-01T01:19:00.256Z,2.70
2023-02-01T01:21:28.710Z,2.20
2023-02-01T01:23:56.730Z,2.00
2023-02-01T01:26:27.639Z,2.10
2023-02-01T01:28:57.622Z,2.30
2023-02-01T01:31:26.529Z,1.70
2023-02-01T01:33:57.008Z,2.00
2023-02-01T01:36:26.176Z,2.70
2023-02-01T01:38:56.816Z,1.80
2023-02-01T01:41:30.094Z,1.90
2023-02-01T01:44:06.900Z,2.60
2023-02-01T01:46:38.820Z,2.00
2023-02-01T01:49:14.413Z,2.00
2023-02-01T01:51:48.607Z,2.50
2023-02-01T01:54:45.401Z,2.40
2023-02-01T01:57:18.913Z,2.80
2023-02-01T01:59:53.367Z,2.60
2023-02-01T02:02:25.977Z,3.50
2023-02-01T02:04:54.806Z,2.70
2023-02-01T02:07:28.055Z,2.50
2023-02-01T02:10:00.981Z,2.70
2023-02-01T02:12:29.663Z,2.70
2023-02-01T02:14:57.936Z,2.50
2023-02-01T02:17:46.652Z,2.60
2023-02-01T02:21:07.394Z,2.50
2023-02-01T02:24:00.082Z,2.10
2023-02-01T02:26:37.699Z,2.40
2023-02-01T02:29:37.995Z,1.90
2023-02-01T02:32:35.696Z,1.80
2023-02-01T02:35:35.096Z,2.00
2023-02-01T02:38:11.616Z,2.00
2023-02-01T02:40:55.701Z,2.70
2023-02-01T02:43:56.699Z,2.30
2023-02-01T02:46:54.310Z,2.20
2023-02-01T02:49:37.852Z,2.10
2023-02-01T02:52:35.972Z,2.30
2023-02-01T02:55:07.079Z,1.90
2023-02-01T02:57:59.525Z,2.20
2023-02-01T03:00:53.074Z,2.00
2023-02-01T03:04:09.854Z,2.20
2023-02-01T03:06:39.965Z,2.10
2023-02-01T03:09:17.628Z,2.40
2023-02-01T03:12:09.682Z,1.70
2023-02-01T03:14:43.034Z,2.20
2023-02-01T03:17:23.985Z,2.80
2023-02-01T03:19:54.785Z,2.20
2023-02-01T03:22:25.573Z,2.40
2023-02-01T03:25:01.189Z,2.50
2023-02-01T03:27:42.429Z,2.20
2023-02-01T03:30:13.992Z,1.80
2023-02-01T03:33:01.916Z,2.90
2023-02-01T03:38:28.776Z,2.30
2023-02-01T03:41:19.369Z,2.50
2023-02-01T03:43:56.707Z,2.10
2023-02-01T03:46:34.156Z,2.40
2023-02-01T03:49:07.963Z,1.90
2023-02-01T03:51:40.958Z,1.70
2023-02-01T03:54:14.523Z,1.40
2023-02-01T03:56:47.258Z,1.60
2023-02-01T03:59:16.555Z,2.40
2023-02-01T04:03:01.604Z,2.80
2023-02-01T04:05:31.368Z,2.00
2023-02-01T04:08:03.781Z,1.60
2023-02-01T04:10:32.104Z,1.60
2023-02-01T04:13:00.436Z,1.30
2023-02-01T04:15:28.427Z,1.70
2023-02-01T04:17:56.296Z,2.40
2023-02-01T04:20:24.913Z,2.50
2023-02-01T04:22:53.201Z,2.40
2023-02-01T04:25:21.617Z,2.20
2023-02-01T04:27:49.699Z,1.50
2023-02-01T04:34:39.028Z,1.90
2023-02-01T04:37:07.404Z,2.20
2023-02-01T04:39:35.464Z,1.90
2023-02-01T04:42:03.548Z,2.20
2023-02-01T04:44:31.640Z,2.40
2023-02-01T04:46:59.853Z,2.00
2023-02-01T04:49:27.864Z,2.60
2023-02-01T04:51:55.713Z,2.00
2023-02-01T04:54:23.585Z,2.40
2023-02-01T04:56:51.598Z,2.70
2023-02-01T04:59:22.999Z,1.80
2023-02-01T05:01:51.192Z,2.10
2023-02-01T05:04:20.235Z,2.40
2023-02-01T05:06:48.499Z,2.00
2023-02-01T05:09:17.148Z,1.80
2023-02-01T05:12:03.552Z,1.80
2023-02-01T05:14:31.809Z,1.80
2023-02-01T05:16:59.898Z,2.30
2023-02-01T05:19:28.002Z,2.10
2023-02-01T05:21:56.029Z,2.60
2023-02-01T05:24:23.923Z,2.80
2023-02-01T05:26:52.448Z,1.90
2023-02-01T05:29:20.859Z,2.10
2023-02-01T05:31:49.570Z,2.00
2023-02-01T05:34:18.040Z,1.90
2023-02-01T05:36:45.960Z,1.90
2023-02-01T05:39:14.044Z,2.60
2023-02-01T05:41:42.084Z,2.90
2023-02-01T05:44:11.763Z,2.30
2023-02-01T05:46:39.772Z,2.60
2023-02-01T05:49:09.035Z,1.70
2023-02-01T05:51:36.926Z,2.00
2023-02-01T05:54:04.999Z,1.90
2023-02-01T05:56:32.934Z,1.60
2023-02-01T06:01:29.212Z,2.70
2023-02-01T06:03:57.235Z,2.10
2023-02-01T06:06:25.355Z,2.60
2023-02-01T06:08:53.528Z,2.00
2023-02-01T06:11:31.872Z,1.80
2023-02-01T06:14:01.087Z,1.50
2023-02-01T06:16:29.265Z,2.20
2023-02-01T06:18:57.240Z,2.70
2023-02-01T06:21:25.273Z,2.60
2023-02-01T06:23:56.677Z,2.60
2023-02-01T06:26:25.043Z,2.80
2023-02-01T06:28:53.646Z,2.40
2023-02-01T06:31:21.915Z,1.80
2023-02-01T06:33:50.649Z,2.30
2023-02-01T06:36:19.911Z,2.20
2023-02-01T06:38:49.505Z,1.90
2023-02-01T06:41:17.725Z,2.40
2023-02-01T06:43:47.265Z,2.10
2023-02-01T06:46:16.137Z,1.90
2023-02-01T06:48:44.291Z,1.50
2023-02-01T06:51:23.995Z,2.40
2023-02-01T06:53:55.412Z,2.10
2023-02-01T06:56:23.845Z,2.10
2023-02-01T06:58:52.289Z,2.80
2023-02-01T07:01:20.702Z,2.10
2023-02-01T07:03:50.890Z,2.10
2023-02-01T07:06:19.430Z,1.90
2023-02-01T07:08:47.874Z,2.90
2023-02-01T07:11:17.087Z,1.90
2023-02-01T07:13:46.045Z,2.50
2023-02-01T07:16:17.094Z,1.80
2023-02-01T07:18:45.560Z,2.80
2023-02-01T07:21:13.708Z,1.80
2023-02-01T07:23:41.664Z,1.80
2023-02-01T07:26:13.480Z,1.90
2023-02-01T07:28:41.906Z,2.30
2023-02-01T07:31:22.913Z,2.70
2023-02-01T07:33:53.990Z,2.40
2023-02-01T07:36:21.979Z,2.50
2023-02-01T07:38:50.527Z,2.20
2023-02-01T07:41:19.182Z,1.60
2023-02-01T07:43:47.410Z,1.80
2023-02-01T07:46:16.427Z,2.60
2023-02-01T07:48:44.504Z,2.30
2023-02-01T07:51:15.315Z,2.20
2023-02-01T07:53:44.405Z,2.20
2023-02-01T07:56:18.072Z,3.10
2023-02-01T07:58:51.481Z,1.90
2023-02-01T08:01:25.995Z,2.60
2023-02-01T08:04:02.933Z,2.40
2023-02-01T08:06:34.792Z,2.90
2023-02-01T08:09:04.375Z,2.40
2023-02-01T08:11:33.180Z,2.30
2023-02-01T08:14:01.392Z,3.10
2023-02-01T08:16:29.568Z,1.70
2023-02-01T08:18:58.029Z,3.00
2023-02-01T08:21:29.463Z,2.80
2023-02-01T08:23:57.480Z,2.50
2023-02-01T08:26:27.086Z,2.70
2023-02-01T08:29:00.797Z,2.90
2023-02-01T08:31:30.338Z,3.20
2023-02-01T08:34:01.746Z,2.30
2023-02-01T08:36:31.519Z,2.50
2023-02-01T08:38:59.657Z,2.60
2023-02-01T08:41:30.344Z,2.30
2023-02-01T08:43:58.748Z,2.20
2023-02-01T08:46:27.196Z,3.20
2023-02-01T08:48:55.782Z,4.10
2023-02-01T08:51:24.327Z,3.10
2023-02-01T08:53:52.587Z,3.60
2023-02-01T08:56:21.202Z,2.60
2023-02-01T08:58:49.335Z,2.20
2023-02-01T09:01:18.573Z,2.30
2023-02-01T09:03:47.319Z,2.70
2023-02-01T09:06:17.288Z,2.80
2023-02-01T09:08:45.440Z,2.70
2023-02-01T09:11:20.029Z,2.30
2023-02-01T09:13:49.665Z,3.20
2023-02-01T09:16:18.094Z,2.10
2023-02-01T09:18:55.880Z,2.70
2023-02-01T09:21:34.658Z,3.20
2023-02-01T09:24:02.998Z,2.50
2023-02-01T09:26:32.625Z,2.40
2023-02-01T09:29:02.127Z,1.90
2023-02-01T09:31:31.724Z,2.10
2023-02-01T09:33:59.784Z,2.40
2023-02-01T09:36:30.130Z,2.10
2023-02-01T09:39:00.426Z,2.90
2023-02-01T09:41:47.297Z,2.90
2023-02-01T09:44:48.852Z,2.70
2023-02-01T09:47:20.970Z,2.20
2023-02-01T09:50:00.895Z,2.80
2023-02-01T09:52:37.396Z,2.20
2023-02-01T09:55:14.420Z,2.70
2023-02-01T09:57:55.545Z,2.70
2023-02-01T10:00:31.047Z,2.50
2023-02-01T10:02:59.150Z,2.10
2023-02-01T10:05:49.584Z,3.90
2023-02-01T10:08:38.957Z,2.20
2023-02-01T10:11:49.482Z,2.70
2023-02-01T10:14:45.098Z,2.80
2023-02-01T10:17:45.770Z,3.00
2023-02-01T10:20:28.240Z,3.30
2023-02-01T10:23:31.194Z,2.80
2023-02-01T10:26:19.316Z,2.60
2023-02-01T10:28:58.018Z,2.40
2023-02-01T10:31:30.043Z,2.90
2023-02-01T10:36:39.498Z,2.40
2023-02-01T10:39:15.320Z,2.90
2023-02-01T10:41:47.175Z,2.40
2023-02-01T10:44:18.929Z,3.40
2023-02-01T10:46:46.983Z,2.90
2023-02-01T10:49:21.905Z,2.70
2023-02-01T10:51:59.260Z,3.20
2023-02-01T10:54:42.011Z,2.90
2023-02-01T10:57:25.754Z,2.50
2023-02-01T10:59:54.169Z,3.10
2023-02-01T11:04:39.189Z,2.60
2023-02-01T11:07:17.708Z,3.20
2023-02-01T11:09:51.825Z,3.10
2023-02-01T11:12:38.021Z,2.70
2023-02-01T11:15:22.942Z,3.40
2023-02-01T11:17:53.813Z,3.60
2023-02-01T11:20:27.673Z,3.50
2023-02-01T11:22:58.094Z,3.80
2023-02-01T11:25:27.337Z,2.70
2023-02-01T11:27:57.243Z,2.80
2023-02-01T11:30:37.591Z,2.90
2023-02-01T11:33:07.227Z,3.00
2023-02-01T11:35:40.922Z,3.40
2023-02-01T11:38:22.407Z,3.10
2023-02-01T11:40:51.202Z,3.10
2023-02-01T11:43:28.168Z,3.40
2023-02-01T11:46:01.595Z,3.40
2023-02-01T11:48:34.380Z,3.90
2023-02-01T11:51:14.089Z,3.40
2023-02-01T11:54:07.387Z,4.30
2023-02-01T11:56:49.987Z,3.80
2023-02-01T11:59:33.960Z,4.30
2023-02-01T12:02:24.967Z,3.50
2023-02-01T12:05:24.580Z,4.30
2023-02-01T12:08:01.781Z,4.00
2023-02-01T12:10:47.341Z,4.30
2023-02-01T12:13:42.240Z,3.80
2023-02-01T12:16:49.812Z,4.20
2023-02-01T12:19:57.276Z,4.30
2023-02-01T12:22:40.986Z,3.90
2023-02-01T12:25:30.248Z,4.40
2023-02-01T12:28:02.098Z,4.70
2023-02-01T12:31:09.339Z,3.90
2023-02-01T12:34:14.805Z,3.90
2023-02-01T12:36:56.905Z,5.20
2023-02-01T12:39:41.671Z,4.10
2023-02-01T12:42:18.921Z,4.40
2023-02-01T12:45:24.997Z,4.30
2023-02-01T12:48:00.910Z,4.70
2023-02-01T12:50:42.981Z,5.30
2023-02-01T12:53:25.233Z,3.90
2023-02-01T12:58:48.675Z,3.70
2023-02-01T13:01:29.076Z,4.50
2023-02-01T13:04:10.739Z,4.00
2023-02-01T13:06:49.105Z,4.50
2023-02-01T13:09:44.257Z,5.60
2023-02-01T13:12:21.308Z,4.80
2023-02-01T13:14:59.539Z,4.60
2023-02-01T13:17:34.241Z,4.10
2023-02-01T13:20:17.646Z,5.30
2023-02-01T13:22:53.122Z,4.00
2023-02-01T13:25:48.053Z,4.40
2023-02-01T13:28:41.227Z,3.10
2023-02-01T13:31:28.671Z,2.20
2023-02-01T13:34:15.321Z,3.00
2023-02-01T13:37:11.664Z,2.70
2023-02-01T13:40:05.153Z,2.50
2023-02-01T13:42:43.869Z,3.30
2023-02-01T13:45:18.751Z,4.40
2023-02-01T13:47:50.908Z,5.10
2023-02-01T13:50:18.779Z,5.60
2023-02-01T13:52:57.911Z,5.00
2023-02-01T13:55:30.164Z,4.60
2023-02-01T14:00:47.302Z,4.70
2023-02-01T14:03:23.441Z,4.00
2023-02-01T14:05:51.321Z,4.40
2023-02-01T14:08:40.095Z,4.40
2023-02-01T14:11:27.937Z,3.80
2023-02-01T14:13:55.769Z,4.50
2023-02-01T14:16:24.069Z,3.80
2023-02-01T14:19:00.894Z,4.10
2023-02-01T14:21:37.265Z,3.20
2023-02-01T14:24:11.377Z,3.40
2023-02-01T14:26:39.298Z,3.60
2023-02-01T14:29:20.768Z,3.00
2023-02-01T14:31:50.580Z,3.20
2023-02-01T14:34:23.578Z,2.90
2023-02-01T14:36:59.224Z,2.60
2023-02-01T14:39:33.028Z,3.00
2023-02-01T14:42:05.693Z,3.60
2023-02-01T14:44:37.381Z,3.30
2023-02-01T14:47:25.639Z,3.00
2023-02-01T14:50:17.788Z,3.60
2023-02-01T14:53:00.856Z,4.00
2023-02-01T14:55:37.026Z,4.90
2023-02-01T14:58:30.143Z,2.90
2023-02-01T15:01:02.772Z,3.30
2023-02-01T15:03:30.834Z,3.30
2023-02-01T15:06:01.824Z,4.20
2023-02-01T15:08:33.813Z,3.70
2023-02-01T15:11:07.673Z,3.90
2023-02-01T15:13:35.689Z,3.60
2023-02-01T15:16:16.180Z,3.90
2023-02-01T15:18:44.043Z,4.00
2023-02-01T15:21:31.267Z,2.70
2023-02-01T15:24:14.430Z,4.30
2023-02-01T15:26:42.479Z,3.70
2023-02-01T15:29:13.443Z,3.90
2023-02-01T15:31:45.782Z,3.90
2023-02-01T15:34:14.844Z,4.40
2023-02-01T15:36:56.860Z,3.90
2023-02-01T15:39:32.419Z,4.00
2023-02-01T15:42:12.245Z,4.20
2023-02-01T15:44:43.894Z,3.90
2023-02-01T15:47:17.861Z,3.90
2023-02-01T15:49:51.619Z,3.60
2023-02-01T15:52:23.512Z,3.50
2023-02-01T15:54:57.686Z,3.70
2023-02-01T15:57:52.832Z,3.40
2023-02-01T16:00:29.173Z,4.00
2023-02-01T16:03:21.298Z,3.80
2023-02-01T16:05:58.736Z,3.10
2023-02-01T16:08:29.872Z,4.10
2023-02-01T16:11:15.845Z,3.30
2023-02-01T16:13:43.679Z,3.60
2023-02-01T16:16:14.955Z,3.70
2023-02-01T16:18:43.236Z,3.60
2023-02-01T16:21:11.373Z,4.10
2023-02-01T16:23:39.273Z,4.00
2023-02-01T16:26:07.404Z,4.10
2023-02-01T16:28:35.732Z,4.50
2023-02-01T16:31:03.719Z,4.30
2023-02-01T16:33:31.645Z,4.00
2023-02-01T16:36:01.325Z,4.00
2023-02-01T16:38:29.602Z,3.80
2023-02-01T16:40:59.217Z,4.00
2023-02-01T16:43:27.376Z,2.90
2023-02-01T16:45:59.996Z,3.80
2023-02-01T16:48:31.228Z,4.30
2023-02-01T16:51:02.645Z,3.50
2023-02-01T16:53:36.620Z,4.10
2023-02-01T16:56:17.559Z,4.00
2023-02-01T16:58:46.262Z,4.70
2023-02-01T17:01:16.399Z,5.20
2023-02-01T17:03:46.611Z,4.60
2023-02-01T17:06:21.059Z,4.40
2023-02-01T17:08:54.624Z,3.80
2023-02-01T17:11:23.092Z,3.70
2023-02-01T17:13:51.182Z,4.60
2023-02-01T17:16:19.116Z,5.20
2023-02-01T17:18:56.847Z,4.80
2023-02-01T17:21:26.797Z,5.00
2023-02-01T17:23:55.715Z,5.00
2023-02-01T17:26:23.497Z,5.30
2023-02-01T17:28:52.824Z,4.90
2023-02-01T17:31:21.040Z,4.70
2023-02-01T17:33:50.488Z,4.80
2023-02-01T17:36:18.688Z,4.40
2023-02-01T17:38:53.631Z,4.70
2023-02-01T17:41:28.498Z,4.80
2023-02-01T17:43:56.398Z,4.60
2023-02-01T17:46:27.291Z,3.90
2023-02-01T17:48:57.156Z,4.60
2023-02-01T17:51:28.065Z,5.00
2023-02-01T17:53:56.487Z,4.20
2023-02-01T17:56:26.029Z,4.30
2023-02-01T17:58:55.864Z,4.00
2023-02-01T18:01:25.037Z,4.50
2023-02-01T18:03:53.253Z,4.20
2023-02-01T18:06:26.986Z,4.70
2023-02-01T18:08:55.042Z,4.10
2023-02-01T18:11:25.127Z,4.50
2023-02-01T18:13:54.022Z,4.60
2023-02-01T18:16:27.743Z,3.50
2023-02-01T18:19:01.841Z,4.40
2023-02-01T18:21:35.340Z,3.90
2023-02-01T18:24:04.379Z,3.80
2023-02-01T18:26:32.379Z,3.00
2023-02-01T18:29:00.890Z,3.70
2023-02-01T18:31:32.206Z,2.70
2023-02-01T18:34:00.860Z,3.70
2023-02-01T18:36:30.542Z,4.10
2023-02-01T18:38:58.857Z,3.40
2023-02-01T18:41:27.104Z,3.90
2023-02-01T18:43:54.943Z,3.70
2023-02-01T18:46:23.203Z,4.40
2023-02-01T18:48:52.220Z,3.60
2023-02-01T18:51:21.188Z,4.00
2023-02-01T18:53:49.445Z,4.30
2023-02-01T18:56:20.913Z,4.60
2023-02-01T18:58:48.854Z,4.60
2023-02-01T19:04:35.886Z,4.00
2023-02-01T19:07:04.049Z,3.60
2023-02-01T19:09:32.559Z,3.80
2023-02-01T19:12:00.382Z,3.90
2023-02-01T19:14:28.410Z,4.00
2023-02-01T19:16:58.272Z,4.90
2023-02-01T19:19:27.008Z,5.30
2023-02-01T19:21:55.057Z,5.00
2023-02-01T19:24:28.030Z,3.70
2023-02-01T19:26:57.009Z,4.40
2023-02-01T19:29:25.198Z,4.40
2023-02-01T19:31:53.208Z,4.60
2023-02-01T19:34:21.326Z,4.70
2023-02-01T19:36:50.525Z,4.80
2023-02-01T19:39:19.382Z,4.90
2023-02-01T19:41:47.240Z,4.40
2023-02-01T19:44:15.154Z,5.00
2023-02-01T19:46:43.390Z,5.00
2023-02-01T19:49:12.231Z,4.20
2023-02-01T19:51:41.764Z,4.50
2023-02-01T19:54:09.675Z,4.50
2023-02-01T19:56:37.869Z,4.60
2023-02-01T19:59:05.835Z,5.10
2023-02-01T20:01:33.840Z,4.50
2023-02-01T20:04:01.833Z,4.50
2023-02-01T20:06:34.405Z,4.80
2023-02-01T20:09:03.974Z,4.30
2023-02-01T20:11:32.688Z,5.40
2023-02-01T20:14:00.549Z,5.30
2023-02-01T20:16:28.761Z,4.90
2023-02-01T20:18:56.841Z,4.80
2023-02-01T20:21:24.902Z,4.60
2023-02-01T20:23:52.879Z,5.10
2023-02-01T20:26:24.797Z,4.80
2023-02-01T20:28:53.142Z,5.40
2023-02-01T20:31:21.463Z,3.80
2023-02-01T20:33:49.305Z,4.50
2023-02-01T20:36:17.464Z,5.30
2023-02-01T20:38:45.699Z,5.00
2023-02-01T20:41:13.635Z,4.70
2023-02-01T20:43:41.512Z,4.70
2023-02-01T20:46:09.818Z,4.70
2023-02-01T20:48:37.735Z,5.00
2023-02-01T20:51:06.032Z,4.50
2023-02-01T20:53:34.038Z,4.00
2023-02-01T20:56:01.928Z,4.50
2023-02-01T20:58:30.855Z,3.80
2023-02-01T21:00:58.881Z,5.00
2023-02-01T21:03:27.624Z,4.60
2023-02-01T21:05:58.412Z,4.60
2023-02-01T21:08:27.993Z,4.90
2023-02-01T21:11:05.685Z,4.90
2023-02-01T21:13:36.935Z,4.40
2023-02-01T21:16:08.899Z,4.80
2023-02-01T21:21:14.583Z,3.90
2023-02-01T21:23:47.683Z,4.20
2023-02-01T21:26:18.523Z,4.50
2023-02-01T21:28:46.461Z,4.60
2023-02-01T21:31:17.109Z,4.80
2023-02-01T21:33:47.976Z,4.80
2023-02-01T21:36:19.448Z,4.70
2023-02-01T21:38:52.670Z,4.80
2023-02-01T21:41:43.321Z,4.60
2023-02-01T21:44:14.615Z,5.00
2023-02-01T21:46:43.802Z,5.90
2023-02-01T21:49:11.944Z,6.30
2023-02-01T21:51:40.124Z,7.50
2023-02-01T21:54:09.978Z,7.10
2023-02-01T21:56:39.182Z,6.40
2023-02-01T21:59:07.835Z,6.70
2023-02-01T22:01:36.585Z,7.50
2023-02-01T22:04:04.553Z,5.70
2023-02-01T22:06:35.595Z,6.60
2023-02-01T22:09:05.534Z,6.10
2023-02-01T22:11:33.547Z,6.30
2023-02-01T22:14:01.433Z,6.50
2023-02-01T22:16:31.573Z,6.60
2023-02-01T22:18:59.587Z,6.50
2023-02-01T22:21:27.919Z,4.80
2023-02-01T22:23:58.934Z,4.60
2023-02-01T22:26:28.093Z,4.90
2023-02-01T22:28:56.237Z,5.40
2023-02-01T22:31:24.160Z,4.20
2023-02-01T22:33:52.096Z,5.40
2023-02-01T22:36:20.229Z,5.60
2023-02-01T22:38:48.633Z,5.10
2023-02-01T22:41:17.386Z,5.10
2023-02-01T22:43:46.381Z,5.10
2023-02-01T22:46:17.091Z,5.20
2023-02-01T22:48:47.027Z,4.80
2023-02-01T22:51:25.077Z,4.50
2023-02-01T22:53:59.872Z,5.40
2023-02-01T22:56:33.876Z,5.10
2023-02-01T22:59:05.264Z,4.50
2023-02-01T23:01:34.816Z,4.80
2023-02-01T23:04:05.805Z,5.10
2023-02-01T23:06:34.806Z,5.90
2023-02-01T23:09:12.159Z,6.00
2023-02-01T23:11:40.503Z,5.90
2023-02-01T23:14:09.261Z,5.70
2023-02-01T23:16:38.149Z,6.30
2023-02-01T23:19:06.452Z,5.60
2023-02-01T23:21:34.844Z,5.80
2023-02-01T23:24:04.944Z,7.00
2023-02-01T23:26:33.970Z,6.90
2023-02-01T23:29:02.902Z,6.10
2023-02-01T23:31:33.646Z,6.20
2023-02-01T23:34:03.103Z,6.30
2023-02-01T23:36:32.967Z,6.10
2023-02-01T23:39:02.111Z,5.80
2023-02-01T23:41:31.739Z,5.10
2023-02-01T23:44:00.148Z,4.40
2023-02-01T23:46:41.617Z,6.30
2023-02-01T23:49:10.604Z,5.10
2023-02-01T23:51:39.687Z,7.20
2023-02-01T23:54:09.761Z,6.40
2023-02-01T23:56:43.279Z,6.10
2023-02-01T23:59:17.058Z,7.00
